Time;durP1;ratioP1;P1;durP2;ratioP2;P2;SDS_P1;SDS_P2;PMS_P1;PMS_P2;Temp;Humidity;BMP_temperature;BMP_pressure;BME280_temperature;BME280_humidity;BME280_pressure;Samples;Min_cycle;Max_cycle;Signal;HPM_P1;HPM_P2
2023/02/26 00:01:13;;;;;;;4.35;0.70;;;1.10;99.90;;;;;;5082224;28;20032;-78
2023/02/26 00:03:40;;;;;;;7.87;0.80;;;0.80;99.90;;;;;;5072649;28;20036;-78
2023/02/26 00:06:07;;;;;;;1.85;0.80;;;0.80;99.90;;;;;;5073700;28;20570;-78
2023/02/26 00:08:33;;;;;;;6.50;0.90;;;0.80;99.90;;;;;;5086138;28;20048;-79
2023/02/26 00:11:03;;;;;;;6.35;0.70;;;1.10;99.90;;;;;;5092754;28;20470;-78
2023/02/26 00:13:30;;;;;;;1.23;0.88;;;0.80;99.90;;;;;;5093267;28;20040;-78
2023/02/26 00:15:59;;;;;;;5.72;0.80;;;0.70;99.90;;;;;;5076107;28;20035;-78
2023/02/26 00:18:27;;;;;;;5.88;1.48;;;0.70;99.90;;;;;;5109478;28;20032;-78
2023/02/26 00:20:53;;;;;;;4.07;0.82;;;0.70;99.90;;;;;;5072381;28;20048;-78
2023/02/26 00:23:20;;;;;;;1.65;0.80;;;0.70;99.90;;;;;;5072672;28;20032;-78
2023/02/26 00:25:47;;;;;;;1.10;0.60;;;0.70;99.90;;;;;;5056298;28;20127;-78
2023/02/26 00:28:14;;;;;;;1.45;0.60;;;0.60;99.90;;;;;;5072689;28;20041;-78
2023/02/26 00:30:41;;;;;;;4.15;0.93;;;0.60;99.90;;;;;;5072540;28;20040;-78
2023/02/26 00:33:08;;;;;;;0.93;0.50;;;0.60;99.90;;;;;;5089298;28;20051;-78
2023/02/26 00:35:35;;;;;;;2.58;0.70;;;0.60;99.90;;;;;;5089067;28;20067;-78
2023/02/26 00:38:15;;;;;;;6.18;0.85;;;0.60;99.90;;;;;;5071956;28;20058;-78
2023/02/26 00:40:48;;;;;;;1.52;0.68;;;0.50;99.90;;;;;;5090388;28;20043;-78
2023/02/26 00:43:17;;;;;;;4.10;0.57;;;0.50;99.90;;;;;;5098345;28;20035;-77
2023/02/26 00:46:31;;;;;;;1.92;0.60;;;0.50;99.90;;;;;;5129263;28;20047;-78
2023/02/26 00:49:38;;;;;;;1.85;0.55;;;0.50;99.90;;;;;;5011482;28;20623;-78
2023/02/26 00:52:13;;;;;;;2.30;0.70;;;0.50;99.90;;;;;;5004986;28;20093;-78
2023/02/26 00:54:40;;;;;;;3.83;1.05;;;0.60;99.90;;;;;;5057067;28;20045;-78
2023/02/26 00:57:06;;;;;;;2.13;0.50;;;0.40;99.90;;;;;;5072395;28;20090;-78
2023/02/26 00:59:33;;;;;;;4.20;0.57;;;0.40;99.90;;;;;;5055676;28;20127;-78
2023/02/26 01:02:00;;;;;;;2.10;0.70;;;1.20;99.90;;;;;;5088397;28;20051;-78
2023/02/26 01:04:27;;;;;;;7.28;0.90;;;0.70;99.90;;;;;;5072746;28;20083;-78
2023/02/26 01:06:56;;;;;;;1.38;0.52;;;0.30;99.90;;;;;;5088741;28;20143;-78
2023/02/26 01:09:29;;;;;;;2.92;0.60;;;0.30;99.90;;;;;;5072161;28;20535;-78
2023/02/26 01:12:02;;;;;;;3.92;0.70;;;0.30;99.90;;;;;;5088736;28;20029;-78
2023/02/26 01:14:33;;;;;;;4.55;1.02;;;0.30;99.90;;;;;;5099423;28;20052;-78
2023/02/26 01:17:14;;;;;;;1.90;0.60;;;0.20;99.90;;;;;;5109658;28;20047;-78
2023/02/26 01:19:54;;;;;;;1.48;0.65;;;0.20;99.90;;;;;;5129592;28;20039;-78
2023/02/26 01:22:28;;;;;;;5.05;0.95;;;0.10;99.90;;;;;;5112597;28;20437;-78
2023/02/26 01:25:11;;;;;;;3.00;0.50;;;0.20;99.90;;;;;;5112178;28;20441;-78
2023/02/26 01:27:38;;;;;;;3.45;0.90;;;0.20;99.90;;;;;;5129089;28;20075;-78
2023/02/26 01:30:06;;;;;;;1.42;0.60;;;0.20;99.90;;;;;;5112185;28;20516;-78
2023/02/26 01:33:00;;;;;;;4.93;0.93;;;0.20;99.90;;;;;;5096343;28;20483;-77
2023/02/26 01:35:47;;;;;;;1.60;0.70;;;0.20;99.90;;;;;;5111984;28;20058;-78
2023/02/26 01:38:41;;;;;;;4.70;0.82;;;0.20;99.90;;;;;;5094753;28;20051;-78
2023/02/26 01:41:27;;;;;;;2.40;0.50;;;0.30;99.90;;;;;;5091758;28;20048;-78
2023/02/26 01:44:14;;;;;;;;;;;0.30;99.90;;;;;;5091981;28;20082;-78
2023/02/26 01:46:56;;;;;;;;;;;0.30;99.90;;;;;;5108769;28;20369;-77
2023/02/26 01:49:24;;;;;;;2.50;0.73;;;0.30;99.90;;;;;;5091816;28;20010;-78
2023/02/26 01:51:56;;;;;;;0.50;0.45;;;0.30;99.90;;;;;;5075601;28;20040;-78
2023/02/26 01:54:30;;;;;;;2.70;0.88;;;0.30;99.90;;;;;;5092090;28;20048;-78
2023/02/26 01:57:05;;;;;;;2.33;0.60;;;0.30;99.90;;;;;;5111275;28;20468;-78
2023/02/26 01:59:34;;;;;;;3.63;0.70;;;1.20;99.90;;;;;;5112074;28;20089;-78
2023/02/26 02:02:05;;;;;;;1.13;0.60;;;0.90;99.90;;;;;;5095621;28;20036;-78
2023/02/26 02:04:32;;;;;;;7.57;0.90;;;0.20;99.90;;;;;;5095389;28;20059;-78
2023/02/26 02:06:59;;;;;;;1.38;0.68;;;0.30;99.90;;;;;;5095375;28;20067;-78
2023/02/26 02:09:26;;;;;;;0.70;0.40;;;0.20;99.90;;;;;;5092379;28;20082;-78
2023/02/26 02:12:24;;;;;;;1.48;0.45;;;0.20;99.90;;;;;;5074919;28;20123;-78
2023/02/26 02:15:06;;;;;;;1.55;0.75;;;0.20;99.90;;;;;;5091445;28;20036;-78
2023/02/26 02:17:57;;;;;;;3.75;0.82;;;0.10;99.90;;;;;;5074821;28;20080;-78
2023/02/26 02:20:29;;;;;;;0.82;0.40;;;0.10;99.90;;;;;;5076689;28;20123;-78
2023/02/26 02:23:16;;;;;;;1.05;0.60;;;0.10;99.90;;;;;;5091526;28;20119;-78
2023/02/26 02:25:58;;;;;;;3.83;0.52;;;0.00;99.90;;;;;;5091668;28;20043;-78
2023/02/26 02:28:42;;;;;;;3.33;0.60;;;-0.10;99.90;;;;;;5074974;28;20055;-78
2023/02/26 02:31:19;;;;;;;6.07;0.82;;;-0.10;99.90;;;;;;5091761;28;20555;-78
2023/02/26 02:33:45;;;;;;;9.27;1.00;;;0.20;99.90;;;;;;5074807;28;20401;-78
2023/02/26 02:36:22;;;;;;;2.38;0.50;;;0.00;99.90;;;;;;5053125;28;20136;-77
2023/02/26 02:38:55;;;;;;;2.35;1.02;;;0.50;99.90;;;;;;5051185;28;20398;-78
2023/02/26 02:41:33;;;;;;;0.90;0.70;;;0.30;99.90;;;;;;5068072;28;20098;-78
2023/02/26 02:44:02;;;;;;;1.17;0.57;;;-0.20;99.90;;;;;;5060499;28;20036;-78
2023/02/26 02:46:31;;;;;;;5.28;0.65;;;-0.20;99.90;;;;;;5041029;28;20037;-78
2023/02/26 02:49:06;;;;;;;2.10;0.52;;;0.50;99.90;;;;;;5067108;28;20441;-78
2023/02/26 02:51:45;;;;;;;3.53;0.55;;;0.10;99.90;;;;;;5067341;28;20045;-78
2023/02/26 02:54:21;;;;;;;2.67;0.63;;;-0.30;99.90;;;;;;5076492;28;20052;-78
2023/02/26 02:56:57;;;;;;;5.88;0.80;;;-0.30;99.90;;;;;;5087444;28;20045;-78
2023/02/26 02:59:42;;;;;;;5.43;0.98;;;-0.30;99.90;;;;;;5087338;28;20045;-78
2023/02/26 03:02:08;;;;;;;5.57;0.90;;;-0.30;99.90;;;;;;5070423;28;20043;-78
2023/02/26 03:04:35;;;;;;;2.00;0.70;;;-0.30;99.90;;;;;;5070746;28;20037;-78
2023/02/26 03:07:02;;;;;;;3.25;0.73;;;-0.20;99.90;;;;;;5053672;28;20048;-78
2023/02/26 03:09:29;;;;;;;3.45;0.70;;;-0.20;99.90;;;;;;5070806;28;20036;-78
2023/02/26 03:11:56;;;;;;;2.55;0.80;;;-0.20;99.90;;;;;;5037514;28;20132;-78
2023/02/26 03:14:23;;;;;;;0.98;0.60;;;-0.20;99.90;;;;;;5054113;28;20040;-78
2023/02/26 03:17:01;;;;;;;0.75;0.50;;;-0.20;99.90;;;;;;5054065;28;20521;-78
2023/02/26 03:19:37;;;;;;;0.93;0.43;;;-0.20;99.90;;;;;;5070718;28;20138;-78
2023/02/26 03:22:34;;;;;;;3.53;0.75;;;-0.20;99.90;;;;;;5086901;28;20611;-78
2023/02/26 03:25:20;;;;;;;2.13;1.00;;;-0.20;99.90;;;;;;5070223;28;20397;-78
2023/02/26 03:27:57;;;;;;;3.17;0.68;;;-0.30;99.90;;;;;;5070131;28;20048;-78
2023/02/26 03:30:44;;;;;;;2.58;0.70;;;-0.30;99.90;;;;;;5075384;28;20048;-78
2023/02/26 03:33:46;;;;;;;0.68;0.50;;;-0.30;99.90;;;;;;5050149;28;20041;-78
2023/02/26 03:36:17;;;;;;;1.65;0.57;;;-0.40;99.90;;;;;;5018040;28;20059;-78
2023/02/26 03:38:50;;;;;;;5.75;1.10;;;-0.20;99.90;;;;;;5085531;28;20052;-78
2023/02/26 03:41:27;;;;;;;1.67;0.60;;;-0.50;99.90;;;;;;5060985;28;20033;-78
2023/02/26 03:44:18;;;;;;;1.70;0.60;;;-0.40;99.90;;;;;;5049974;28;20049;-78
2023/02/26 03:46:50;;;;;;;0.55;0.52;;;-0.50;99.90;;;;;;5049993;28;20046;-78
2023/02/26 03:49:24;;;;;;;5.50;0.75;;;-0.50;99.90;;;;;;5066266;28;20071;-78
2023/02/26 03:51:52;;;;;;;2.33;0.90;;;-0.60;99.90;;;;;;5050263;28;20051;-78
2023/02/26 03:54:28;;;;;;;4.55;0.60;;;-0.60;99.90;;;;;;5033252;28;20045;-78
2023/02/26 03:56:55;;;;;;;5.15;0.63;;;-0.60;99.90;;;;;;5049994;28;20552;-78
2023/02/26 03:59:23;;;;;;;1.45;0.65;;;-0.60;99.90;;;;;;5033402;28;20044;-78
2023/02/26 04:02:09;;;;;;;2.63;0.70;;;-0.60;99.90;;;;;;5079121;28;20036;-78
2023/02/26 04:04:49;;;;;;;6.70;0.63;;;-0.60;99.90;;;;;;5086128;28;20039;-78
2023/02/26 04:07:17;;;;;;;3.28;0.55;;;-0.60;99.90;;;;;;5086414;28;20290;-78
2023/02/26 04:09:46;;;;;;;2.25;0.60;;;-0.50;99.90;;;;;;5061287;28;20532;-78
2023/02/26 04:12:13;;;;;;;5.78;0.80;;;-0.60;99.90;;;;;;5060164;28;20051;-78
2023/02/26 04:14:40;;;;;;;2.78;0.70;;;-0.60;99.90;;;;;;5086499;28;20554;-78
2023/02/26 04:17:07;;;;;;;3.55;1.02;;;-0.50;99.90;;;;;;5052247;28;20041;-78
2023/02/26 04:19:33;;;;;;;1.13;0.50;;;-0.60;99.90;;;;;;5069688;28;20048;-78
2023/02/26 04:22:00;;;;;;;3.15;0.73;;;-0.10;99.90;;;;;;5067818;28;20029;-78
2023/02/26 04:24:27;;;;;;;2.67;0.68;;;-0.60;99.90;;;;;;5069063;28;20051;-78
2023/02/26 04:26:53;;;;;;;1.38;0.60;;;-0.60;99.90;;;;;;5052743;28;20097;-78
2023/02/26 04:29:20;;;;;;;4.97;0.50;;;-0.70;99.90;;;;;;5044000;28;20382;-78
2023/02/26 04:31:47;;;;;;;3.08;0.93;;;-0.70;99.90;;;;;;5032786;28;20482;-78
2023/02/26 04:34:13;;;;;;;4.05;0.82;;;-0.70;99.90;;;;;;5035515;28;20040;-78
2023/02/26 04:36:40;;;;;;;2.25;0.70;;;-0.70;99.90;;;;;;5056006;28;20083;-78
2023/02/26 04:39:09;;;;;;;1.10;0.47;;;-0.50;99.90;;;;;;5055689;28;20037;-79
2023/02/26 04:41:37;;;;;;;8.18;0.95;;;-0.70;99.90;;;;;;5040398;28;20040;-78
2023/02/26 04:44:04;;;;;;;1.45;0.57;;;-0.70;99.90;;;;;;5088955;28;20607;-78
2023/02/26 04:46:32;;;;;;;0.90;0.50;;;-0.80;99.90;;;;;;5088804;28;20076;-78
2023/02/26 04:48:58;;;;;;;3.97;0.70;;;-0.80;99.90;;;;;;5089023;28;20141;-78
2023/02/26 04:51:25;;;;;;;5.70;0.98;;;-0.80;99.90;;;;;;5073632;28;20048;-78
2023/02/26 04:53:52;;;;;;;2.85;0.65;;;-0.80;99.90;;;;;;5072151;28;20409;-78
2023/02/26 04:56:19;;;;;;;3.58;0.80;;;-0.60;99.90;;;;;;5055327;28;20040;-78
2023/02/26 04:58:46;;;;;;;1.80;0.77;;;-0.80;99.90;;;;;;5071882;28;20037;-78
2023/02/26 05:01:13;;;;;;;6.82;1.00;;;-0.90;99.90;;;;;;5055461;28;20044;-78
2023/02/26 05:03:39;;;;;;;1.50;0.60;;;-0.90;99.90;;;;;;5072397;28;20084;-78
2023/02/26 05:06:06;;;;;;;4.13;0.80;;;-0.90;99.90;;;;;;5072295;28;20500;-78
2023/02/26 05:08:33;;;;;;;8.00;0.82;;;-0.90;99.90;;;;;;5072235;28;20036;-78
2023/02/26 05:11:00;;;;;;;5.80;0.73;;;-0.90;99.90;;;;;;5039494;28;20048;-78
2023/02/26 05:13:26;;;;;;;1.77;0.82;;;-0.90;99.90;;;;;;5039020;28;20081;-78
2023/02/26 05:15:53;;;;;;;2.40;0.80;;;-0.80;99.90;;;;;;5055473;28;20049;-78
2023/02/26 05:18:20;;;;;;;2.05;0.82;;;-0.80;99.90;;;;;;5071725;28;20040;-78
2023/02/26 05:20:52;;;;;;;2.70;0.50;;;-0.80;99.90;;;;;;5056161;28;20043;-78
2023/02/26 05:23:19;;;;;;;5.20;0.60;;;-0.80;99.90;;;;;;5071891;28;20408;-78
2023/02/26 05:25:46;;;;;;;4.18;0.90;;;-0.70;99.90;;;;;;5055897;28;20123;-78
2023/02/26 05:28:13;;;;;;;3.40;0.60;;;0.40;99.90;;;;;;5071577;28;20037;-78
2023/02/26 05:30:40;;;;;;;3.08;0.93;;;-0.60;99.90;;;;;;5092513;28;20040;-78
2023/02/26 05:33:07;;;;;;;4.07;0.80;;;-0.60;99.90;;;;;;5076446;28;20044;-78
2023/02/26 05:35:33;;;;;;;1.48;0.65;;;-0.50;99.90;;;;;;5058774;28;20132;-78
2023/02/26 05:38:00;;;;;;;3.80;0.65;;;0.30;99.90;;;;;;5075894;28;20040;-78
2023/02/26 05:40:27;;;;;;;0.55;0.50;;;0.40;99.90;;;;;;5075543;28;20434;-78
2023/02/26 05:42:53;;;;;;;3.35;0.40;;;-0.50;99.90;;;;;;5089049;28;20415;-78
2023/02/26 05:45:20;;;;;;;4.03;0.45;;;0.50;99.90;;;;;;5075359;28;20032;-78
2023/02/26 05:47:47;;;;;;;3.25;0.60;;;-0.40;99.90;;;;;;5059550;28;20044;-78
2023/02/26 05:50:13;;;;;;;3.78;0.73;;;-0.10;99.90;;;;;;5059514;28;20074;-78
2023/02/26 05:52:40;;;;;;;2.20;0.77;;;-0.20;99.90;;;;;;5078485;28;20051;-78
2023/02/26 05:55:08;;;;;;;1.17;0.45;;;-0.40;99.90;;;;;;5078501;28;20040;-78
2023/02/26 05:57:35;;;;;;;4.63;0.52;;;-0.40;99.90;;;;;;5078984;28;20127;-78
2023/02/26 06:00:03;;;;;;;0.65;0.43;;;-0.40;99.90;;;;;;5095933;28;20300;-78
2023/02/26 06:02:30;;;;;;;2.38;0.77;;;-0.40;99.90;;;;;;5109719;28;20476;-78
2023/02/26 06:04:56;;;;;;;2.55;0.70;;;-0.40;99.90;;;;;;5092119;28;20043;-78
2023/02/26 06:07:23;;;;;;;2.75;0.70;;;-0.40;99.90;;;;;;5042132;28;20040;-78
2023/02/26 06:09:50;;;;;;;1.48;0.65;;;-0.40;99.90;;;;;;5091831;28;20044;-78
2023/02/26 06:12:16;;;;;;;4.22;0.85;;;-0.40;99.90;;;;;;5058296;28;20119;-78
2023/02/26 06:14:43;;;;;;;4.55;0.70;;;-0.40;99.90;;;;;;5074572;28;20048;-78
2023/02/26 06:17:10;;;;;;;5.80;0.57;;;-0.40;99.90;;;;;;5074973;28;20040;-78
2023/02/26 06:19:37;;;;;;;1.48;0.63;;;-0.40;99.90;;;;;;5074720;28;20037;-78
2023/02/26 06:22:03;;;;;;;0.93;0.40;;;-0.50;99.90;;;;;;5075108;28;20032;-78
2023/02/26 06:24:30;;;;;;;0.65;0.50;;;-0.30;99.90;;;;;;5072740;28;20040;-78
2023/02/26 06:26:57;;;;;;;1.35;0.30;;;-0.50;99.90;;;;;;5099589;28;20040;-78
2023/02/26 06:29:23;;;;;;;2.65;0.55;;;0.10;99.90;;;;;;5058452;28;20430;-78
2023/02/26 06:31:50;;;;;;;1.67;0.93;;;-0.50;99.90;;;;;;5078683;28;20040;-78
2023/02/26 06:34:17;;;;;;;0.73;0.60;;;-0.50;99.90;;;;;;5069211;28;20062;-78
2023/02/26 06:36:44;;;;;;;0.40;0.38;;;-0.50;99.90;;;;;;5066839;28;21003;-78
2023/02/26 06:39:14;;;;;;;1.00;0.60;;;-0.50;99.90;;;;;;5088851;28;20510;-78
2023/02/26 06:41:40;;;;;;;2.15;0.85;;;-0.50;99.90;;;;;;5080643;28;20052;-78
2023/02/26 06:44:08;;;;;;;0.60;0.60;;;-0.50;99.90;;;;;;5083556;28;20101;-78
2023/02/26 06:46:35;;;;;;;0.98;0.70;;;0.40;99.90;;;;;;5081793;28;20040;-78
2023/02/26 06:49:02;;;;;;;0.30;0.30;;;-0.60;99.90;;;;;;5074270;28;20043;-78
2023/02/26 06:51:29;;;;;;;0.50;0.40;;;-0.20;99.90;;;;;;5092999;28;20062;-78
2023/02/26 06:53:56;;;;;;;0.15;0.15;;;-0.60;99.90;;;;;;5078295;28;20116;-78
2023/02/26 06:56:23;;;;;;;0.52;0.50;;;-0.70;99.90;;;;;;5082195;28;20043;-79
2023/02/26 06:58:50;;;;;;;2.72;0.52;;;-0.60;99.90;;;;;;5068377;28;20128;-78
2023/02/26 07:01:17;;;;;;;0.68;0.52;;;-0.70;99.90;;;;;;5087037;28;20409;-78
2023/02/26 07:03:44;;;;;;;0.30;0.30;;;-0.70;99.90;;;;;;5077192;28;20074;-78
2023/02/26 07:06:12;;;;;;;0.50;0.45;;;-0.80;99.90;;;;;;5083775;28;20090;-78
2023/02/26 07:08:39;;;;;;;1.33;0.75;;;-0.30;99.90;;;;;;5099301;28;20044;-78
2023/02/26 07:11:07;;;;;;;1.30;0.77;;;0.20;99.90;;;;;;5073853;28;20040;-78
2023/02/26 07:13:35;;;;;;;0.63;0.32;;;-0.60;99.90;;;;;;5077615;28;20042;-78
2023/02/26 07:16:06;;;;;;;0.45;0.40;;;-0.50;99.90;;;;;;5087917;28;20512;-78
2023/02/26 07:18:34;;;;;;;0.30;0.30;;;-0.50;99.90;;;;;;5057451;28;20041;-78
2023/02/26 07:21:00;;;;;;;1.08;0.47;;;-0.50;99.90;;;;;;5083975;28;20038;-78
2023/02/26 07:23:27;;;;;;;0.20;0.20;;;-0.50;99.90;;;;;;5073563;28;20047;-78
2023/02/26 07:25:55;;;;;;;0.40;0.40;;;-0.50;99.90;;;;;;5072056;28;20484;-78
2023/02/26 07:28:23;;;;;;;1.25;0.60;;;0.50;99.90;;;;;;5079374;28;20036;-78
2023/02/26 07:30:50;;;;;;;5.53;0.52;;;-0.40;99.90;;;;;;5073301;28;20040;-78
2023/02/26 07:33:16;;;;;;;3.42;0.55;;;-0.30;99.90;;;;;;5108509;28;20154;-78
2023/02/26 07:35:43;;;;;;;0.10;0.10;;;-0.30;99.90;;;;;;5058932;28;20060;-78
2023/02/26 07:38:10;;;;;;;0.77;0.77;;;0.50;99.90;;;;;;5077063;28;20051;-78
2023/02/26 07:40:36;;;;;;;0.22;0.22;;;0.10;99.90;;;;;;5084921;28;20040;-78
2023/02/26 07:43:03;;;;;;;0.30;0.30;;;-0.20;99.90;;;;;;5071069;28;20078;-78
2023/02/26 07:45:30;;;;;;;0.40;0.40;;;-0.20;99.90;;;;;;5098329;28;20048;-78
2023/02/26 07:47:57;;;;;;;1.35;0.43;;;-0.10;99.90;;;;;;5081481;28;20488;-78
2023/02/26 07:50:24;;;;;;;1.85;0.43;;;-0.10;99.90;;;;;;5078945;28;20048;-78
2023/02/26 07:52:52;;;;;;;0.65;0.65;;;-0.10;99.90;;;;;;5072866;28;20135;-77
2023/02/26 07:55:19;;;;;;;0.30;0.30;;;-0.10;99.90;;;;;;5081928;28;20048;-78
2023/02/26 07:57:46;;;;;;;0.63;0.30;;;-0.10;99.90;;;;;;5075056;28;20036;-77
2023/02/26 08:00:14;;;;;;;0.22;0.22;;;-0.10;99.90;;;;;;5078707;28;20051;-77
2023/02/26 08:02:41;;;;;;;0.30;0.30;;;0.00;99.90;;;;;;5070944;28;20037;-78
2023/02/26 08:05:08;;;;;;;0.68;0.40;;;0.10;99.90;;;;;;5098117;28;20400;-77
2023/02/26 08:07:36;;;;;;;0.47;0.40;;;0.20;99.90;;;;;;5100334;28;20073;-78
2023/02/26 08:10:03;;;;;;;0.45;0.45;;;0.30;99.90;;;;;;5068745;28;20538;-77
2023/02/26 08:12:30;;;;;;;1.98;0.38;;;0.40;99.90;;;;;;5091075;28;20112;-78
2023/02/26 08:14:56;;;;;;;1.80;0.93;;;0.50;99.90;;;;;;5081286;28;20036;-78
2023/02/26 08:17:23;;;;;;;0.73;0.50;;;0.60;99.90;;;;;;5069077;28;20040;-77
2023/02/26 08:19:50;;;;;;;0.20;0.20;;;1.50;99.90;;;;;;5096948;28;20036;-78
2023/02/26 08:22:17;;;;;;;2.40;0.77;;;0.80;99.90;;;;;;5064826;28;20040;-77
2023/02/26 08:24:44;;;;;;;0.65;0.30;;;0.90;99.90;;;;;;5077476;28;20512;-77
2023/02/26 08:27:10;;;;;;;0.45;0.40;;;1.00;99.90;;;;;;5073602;28;20040;-78
2023/02/26 08:29:37;;;;;;;1.08;0.52;;;1.40;99.90;;;;;;5087766;28;20064;-77
2023/02/26 08:32:04;;;;;;;0.30;0.30;;;1.20;99.90;;;;;;5076642;28;20040;-77
2023/02/26 08:34:30;;;;;;;0.28;0.28;;;1.30;99.90;;;;;;5072622;28;20052;-77
2023/02/26 08:36:57;;;;;;;1.40;0.50;;;1.40;99.90;;;;;;5039743;28;20044;-78
2023/02/26 08:39:24;;;;;;;0.10;0.10;;;1.50;99.90;;;;;;5072416;28;20109;-77
2023/02/26 08:41:51;;;;;;;0.75;0.40;;;1.60;99.90;;;;;;5092545;28;20043;-77
2023/02/26 08:44:17;;;;;;;0.25;0.25;;;1.70;99.90;;;;;;5069369;28;20115;-78
2023/02/26 08:46:44;;;;;;;0.98;0.50;;;2.60;99.90;;;;;;5075477;28;20104;-78
2023/02/26 08:49:11;;;;;;;0.40;0.40;;;1.90;99.90;;;;;;5074562;28;20079;-78
2023/02/26 08:51:37;;;;;;;0.30;0.30;;;2.50;99.90;;;;;;5083873;28;20112;-78
2023/02/26 08:54:04;;;;;;;1.17;0.50;;;3.10;99.90;;;;;;5104652;28;20123;-78
2023/02/26 08:56:31;;;;;;;0.65;0.40;;;2.30;99.90;;;;;;5107162;28;20044;-78
2023/02/26 08:58:57;;;;;;;0.30;0.30;;;2.30;99.90;;;;;;5068582;28;20041;-79
2023/02/26 09:01:24;;;;;;;0.20;0.20;;;2.50;99.90;;;;;;5087245;28;20476;-79
2023/02/26 09:03:51;;;;;;;0.10;0.10;;;2.80;99.90;;;;;;5073903;28;20491;-80
2023/02/26 09:06:17;;;;;;;1.63;1.10;;;2.70;99.90;;;;;;5061993;28;20040;-78
2023/02/26 09:08:44;;;;;;;3.10;0.50;;;2.80;99.90;;;;;;5095111;28;20054;-78
2023/02/26 09:11:11;;;;;;;0.38;0.22;;;3.00;99.90;;;;;;5062208;28;20123;-78
2023/02/26 09:13:37;;;;;;;0.30;0.30;;;3.50;99.90;;;;;;5091404;28;20500;-78
2023/02/26 09:16:05;;;;;;;0.47;0.32;;;3.10;99.90;;;;;;5078974;28;20098;-77
2023/02/26 09:18:32;;;;;;;1.65;0.30;;;3.10;99.90;;;;;;5081952;28;20488;-77
2023/02/26 09:20:58;;;;;;;0.10;0.10;;;3.40;99.90;;;;;;5093319;28;20040;-78
2023/02/26 09:23:25;;;;;;;0.45;0.30;;;3.80;99.90;;;;;;5075132;28;20097;-78
2023/02/26 09:25:53;;;;;;;0.75;0.25;;;3.40;99.90;;;;;;5072346;28;20102;-77
2023/02/26 09:28:22;;;;;;;1.00;0.30;;;3.90;99.90;;;;;;5094714;28;20080;-78
2023/02/26 09:30:52;;;;;;;0.55;0.45;;;3.60;99.90;;;;;;5094536;28;20413;-79
2023/02/26 09:33:20;;;;;;;0.25;0.25;;;3.70;99.90;;;;;;5078534;28;20427;-78
2023/02/26 09:35:49;;;;;;;0.30;0.20;;;3.70;99.90;;;;;;5094170;28;20048;-78
2023/02/26 09:38:16;;;;;;;1.98;0.40;;;3.80;99.90;;;;;;5092700;28;20050;-79
2023/02/26 09:40:58;;;;;;;0.20;0.20;;;3.90;99.90;;;;;;5095131;28;20040;-78
2023/02/26 09:43:43;;;;;;;1.45;0.63;;;4.00;99.90;;;;;;5091593;28;20092;-77
2023/02/26 09:46:29;;;;;;;0.20;0.20;;;4.00;99.90;;;;;;5084707;28;20043;-78
2023/02/26 09:49:40;;;;;;;0.80;0.32;;;4.10;99.90;;;;;;5094645;28;20086;-79
2023/02/26 09:52:23;;;;;;;2.05;0.70;;;4.20;99.90;;;;;;5065511;28;20066;-78
2023/02/26 09:54:54;;;;;;;1.95;0.88;;;4.20;99.90;;;;;;5114842;28;20035;-78
2023/02/26 09:57:31;;;;;;;0.57;0.22;;;4.20;99.90;;;;;;5114391;28;20046;-77
2023/02/26 09:59:59;;;;;;;0.95;0.45;;;4.30;99.90;;;;;;5098011;28;20032;-77
2023/02/26 10:02:26;;;;;;;4.07;0.38;;;4.40;99.90;;;;;;5080206;28;20079;-77
2023/02/26 10:04:55;;;;;;;0.20;0.20;;;4.50;99.90;;;;;;5094565;28;20037;-78
2023/02/26 10:07:53;;;;;;;1.00;0.40;;;4.50;99.90;;;;;;5108460;28;20043;-79
2023/02/26 10:10:34;;;;;;;0.90;0.30;;;4.60;99.90;;;;;;5110739;28;20068;-77
2023/02/26 10:13:01;;;;;;;1.98;0.50;;;4.70;99.90;;;;;;5097331;28;20041;-78
2023/02/26 10:15:41;;;;;;;0.20;0.20;;;4.50;99.90;;;;;;5094809;28;20039;-78
2023/02/26 10:18:24;;;;;;;1.25;0.13;;;4.50;99.90;;;;;;5093208;28;20050;-78
2023/02/26 10:21:16;;;;;;;0.70;0.38;;;4.50;99.90;;;;;;5094208;28;20032;-78
2023/02/26 10:23:49;;;;;;;0.20;0.13;;;4.50;99.90;;;;;;5094931;28;20040;-78
2023/02/26 10:26:16;;;;;;;0.20;0.20;;;4.50;99.90;;;;;;5093706;28;20134;-79
2023/02/26 10:28:55;;;;;;;0.20;0.20;;;4.50;99.90;;;;;;5094360;28;20097;-78
2023/02/26 10:31:25;;;;;;;0.20;0.20;;;4.50;99.90;;;;;;5091837;28;20809;-78
2023/02/26 10:34:04;;;;;;;1.00;0.40;;;5.10;99.90;;;;;;5075195;28;20067;-78
2023/02/26 10:36:45;;;;;;;2.65;0.60;;;4.60;99.90;;;;;;5096022;28;20412;-78
2023/02/26 10:39:47;;;;;;;1.40;0.35;;;4.80;99.90;;;;;;5074364;28;20048;-78
2023/02/26 10:42:32;;;;;;;1.83;0.35;;;4.80;99.90;;;;;;5073884;28;20049;-78
2023/02/26 10:45:27;;;;;;;0.88;0.28;;;4.80;99.90;;;;;;5086825;28;20036;-78
2023/02/26 10:48:14;;;;;;;2.28;0.30;;;4.70;99.90;;;;;;5090362;28;20049;-78
2023/02/26 10:50:50;;;;;;;0.17;0.15;;;4.70;99.90;;;;;;5088029;28;20040;-78
2023/02/26 10:53:17;;;;;;;0.15;0.15;;;4.70;99.90;;;;;;5110469;28;20040;-79
2023/02/26 10:55:46;;;;;;;0.20;0.20;;;4.80;99.90;;;;;;5076244;28;20044;-78
2023/02/26 10:58:22;;;;;;;0.10;0.10;;;4.70;99.90;;;;;;5093485;28;20048;-78
2023/02/26 11:00:54;;;;;;;0.82;0.30;;;4.60;99.90;;;;;;5093111;28;20374;-79
2023/02/26 11:03:37;;;;;;;0.85;0.38;;;4.50;99.90;;;;;;5083750;28;20040;-78
2023/02/26 11:06:05;;;;;;;0.10;0.10;;;4.50;99.90;;;;;;5101013;28;20032;-78
2023/02/26 11:08:52;;;;;;;0.20;0.20;;;4.40;99.90;;;;;;5110271;28;20047;-79
2023/02/26 11:11:47;;;;;;;0.20;0.20;;;4.70;99.90;;;;;;5093196;28;20044;-79
2023/02/26 11:14:14;;;;;;;2.97;0.40;;;4.40;99.90;;;;;;5083914;28;20682;-79
2023/02/26 11:16:50;;;;;;;0.20;0.20;;;4.30;99.90;;;;;;5062198;28;20052;-78
2023/02/26 11:19:18;;;;;;;1.00;0.43;;;4.30;99.90;;;;;;5082954;28;20036;-78
2023/02/26 11:21:46;;;;;;;0.82;0.22;;;4.50;99.90;;;;;;5086480;28;20484;-78
2023/02/26 11:24:20;;;;;;;1.00;0.57;;;4.60;99.90;;;;;;5091836;28;20047;-78
2023/02/26 11:26:49;;;;;;;1.23;0.30;;;4.50;99.90;;;;;;5109035;28;20040;-78
2023/02/26 11:29:21;;;;;;;3.03;0.50;;;4.50;99.90;;;;;;5109650;28;20039;-78
2023/02/26 11:31:54;;;;;;;0.10;0.10;;;4.50;99.90;;;;;;5093546;28;20082;-78
2023/02/26 11:34:23;;;;;;;2.85;0.50;;;4.60;99.90;;;;;;5093236;28;20492;-78
2023/02/26 11:36:52;;;;;;;0.52;0.38;;;4.60;99.90;;;;;;5093331;28;20105;-77
2023/02/26 11:39:25;;;;;;;0.13;0.13;;;4.70;99.90;;;;;;5078839;28;20099;-78
2023/02/26 11:41:56;;;;;;;0.20;0.20;;;4.90;99.90;;;;;;5092804;28;20081;-78
2023/02/26 11:44:43;;;;;;;1.55;0.35;;;4.90;99.90;;;;;;5093395;28;20461;-77
2023/02/26 11:47:27;;;;;;;0.90;0.20;;;5.00;99.90;;;;;;5084515;28;20059;-77
2023/02/26 11:49:59;;;;;;;1.48;0.40;;;5.10;99.90;;;;;;5072731;28;20135;-79
2023/02/26 11:52:40;;;;;;;1.00;0.20;;;5.10;99.90;;;;;;5073088;28;20135;-78
2023/02/26 11:55:21;;;;;;;0.55;0.25;;;5.20;99.90;;;;;;5090348;28;20052;-78
2023/02/26 11:57:53;;;;;;;0.65;0.30;;;5.20;99.90;;;;;;5109130;28;20204;-78
2023/02/26 12:00:38;;;;;;;0.30;0.30;;;5.20;99.90;;;;;;5109669;28;20101;-78
2023/02/26 12:03:13;;;;;;;0.95;0.40;;;5.30;99.90;;;;;;5108860;28;20051;-78
2023/02/26 12:05:40;;;;;;;1.98;0.20;;;5.30;99.90;;;;;;5083927;28;20041;-78
2023/02/26 12:08:24;;;;;;;2.10;0.50;;;5.40;99.90;;;;;;5086420;28;20047;-78
2023/02/26 12:11:19;;;;;;;3.55;0.30;;;5.40;99.90;;;;;;5086914;28;20391;-78
2023/02/26 12:13:51;;;;;;;0.75;0.35;;;5.60;99.90;;;;;;5093156;28;20047;-78
2023/02/26 12:16:44;;;;;;;0.45;0.20;;;6.40;99.90;;;;;;5086805;28;20123;-78
2023/02/26 12:19:55;;;;;;;0.70;0.50;;;5.90;99.90;;;;;;5072176;28;20122;-78
2023/02/26 12:22:53;;;;;;;1.33;0.40;;;5.80;99.90;;;;;;5043425;28;20040;-78
2023/02/26 12:25:37;;;;;;;2.10;0.45;;;5.50;99.90;;;;;;5075186;28;20070;-77
2023/02/26 12:28:30;;;;;;;1.10;0.30;;;5.30;99.90;;;;;;5092236;28;20166;-78
2023/02/26 12:31:06;;;;;;;0.30;0.25;;;5.10;99.90;;;;;;5079893;28;20048;-78
2023/02/26 12:34:07;;;;;;;1.35;0.50;;;5.10;99.90;;;;;;5080701;28;20048;-78
2023/02/26 12:36:46;;;;;;;1.02;0.30;;;5.10;99.90;;;;;;5083784;28;20053;-77
2023/02/26 12:39:40;;;;;;;1.02;0.35;;;5.20;99.90;;;;;;5063898;28;20521;-77
2023/02/26 12:42:10;;;;;;;0.45;0.40;;;5.30;99.90;;;;;;5065242;28;20041;-77
2023/02/26 12:44:55;;;;;;;1.02;0.30;;;5.40;99.90;;;;;;5057629;28;20046;-78
2023/02/26 12:47:31;;;;;;;0.80;0.40;;;5.40;99.90;;;;;;5075177;28;20049;-78
2023/02/26 12:50:24;;;;;;;0.65;0.25;;;5.40;99.90;;;;;;5085048;28;20126;-78
2023/02/26 12:52:54;;;;;;;0.20;0.20;;;5.40;99.90;;;;;;5068667;28;20420;-78
2023/02/26 12:55:46;;;;;;;3.72;0.22;;;5.40;99.90;;;;;;5067588;28;20041;-78
2023/02/26 12:58:34;;;;;;;0.22;0.20;;;5.50;99.90;;;;;;5067057;28;20049;-78
2023/02/26 13:01:19;;;;;;;0.35;0.30;;;5.50;99.90;;;;;;5056608;28;20052;-78
2023/02/26 13:03:52;;;;;;;2.08;0.20;;;5.50;99.90;;;;;;5068152;28;20129;-78
2023/02/26 13:06:22;;;;;;;0.55;0.20;;;5.50;99.90;;;;;;5084329;28;20536;-78
2023/02/26 13:09:54;;;;;;;1.92;0.45;;;5.30;99.90;;;;;;5081649;28;20088;-78
2023/02/26 13:12:49;;;;;;;4.15;0.82;;;5.30;99.90;;;;;;5024690;28;20762;-78
2023/02/26 13:15:35;;;;;;;0.43;0.25;;;5.30;99.90;;;;;;5060536;28;20053;-78
2023/02/26 13:18:25;;;;;;;0.20;0.20;;;5.30;99.90;;;;;;5047853;28;20516;-78
2023/02/26 13:21:00;;;;;;;0.10;0.10;;;5.20;99.90;;;;;;5056864;28;20072;-78
2023/02/26 13:24:04;;;;;;;1.13;0.40;;;5.10;99.90;;;;;;5074996;28;20107;-78